Norvelt, Pennsylvania
Current Conditions -  °F | °C
As of 7:50 AM on Thursday 30 Oct 2014 (Local Time) from KLBE Reporting Station
Broken Clouds Broken Clouds  
Wind Chill: 35°   Ceiling: 4000
Heat Index: 41°   Visibility: 10mi
Dew Point: 37°   Wind: 9mph
Humidity: 87%   Direction: 210°SSW
Pressure: 30.1"   Gusts: NA
Location:  40.21°N, 79.5°W
Report Text: KLBE 301150Z 21008KT 10SM BKN040 05/03 A3010
Loading
Personal Weather Stations






























Interactive Weather Map
Tropical Storm Tracking
New forecast layout! Learn more

10-Day Weather Forecast

Advertisements
Track Severe Weather on mobile